createdAt,value
2022-10-17T00:00:43.471Z,26.97
2022-10-17T00:03:07.536Z,27.12
2022-10-17T00:05:14.021Z,27.21
2022-10-17T00:07:20.356Z,27.37
2022-10-17T00:09:26.555Z,27.54
2022-10-17T00:11:32.787Z,27.56
2022-10-17T00:13:39.326Z,27.49
2022-10-17T00:15:46.309Z,27.71
2022-10-17T00:17:52.753Z,27.86
2022-10-17T00:20:01.045Z,28.07
2022-10-17T00:22:07.313Z,28.05
2022-10-17T00:24:13.720Z,27.91
2022-10-17T00:26:22.172Z,28.17
2022-10-17T00:28:28.281Z,28.00
2022-10-17T00:30:35.574Z,28.15
2022-10-17T00:32:41.742Z,28.17
2022-10-17T00:34:48.260Z,28.20
2022-10-17T00:36:54.365Z,28.09
2022-10-17T00:39:01.149Z,27.88
2022-10-17T00:41:10.160Z,28.06
2022-10-17T00:43:19.822Z,28.08
2022-10-17T00:45:32.338Z,28.34
2022-10-17T00:47:38.861Z,28.34
2022-10-17T00:49:45.658Z,28.30
2022-10-17T00:51:56.493Z,28.08
2022-10-17T00:54:05.133Z,28.22
2022-10-17T00:56:12.249Z,28.34
2022-10-17T00:58:20.335Z,28.39
2022-10-17T01:00:27.547Z,28.62
2022-10-17T01:02:34.064Z,28.55
2022-10-17T01:04:43.196Z,29.25
2022-10-17T01:06:49.356Z,29.79
2022-10-17T01:08:55.905Z,30.39
2022-10-17T01:11:07.501Z,30.66
2022-10-17T01:13:17.574Z,31.02
2022-10-17T01:16:07.332Z,31.42
2022-10-17T01:18:31.619Z,31.78
2022-10-17T01:21:15.049Z,32.57
2022-10-17T01:23:29.913Z,32.95
2022-10-17T01:25:52.240Z,33.24
2022-10-17T01:28:11.401Z,33.69
2022-10-17T01:30:38.514Z,34.01
2022-10-17T01:32:55.832Z,34.19
2022-10-17T01:35:14.611Z,34.57
2022-10-17T01:37:55.142Z,34.73
2022-10-17T01:40:26.051Z,35.00
2022-10-17T01:42:43.490Z,35.12
2022-10-17T01:44:58.245Z,35.17
2022-10-17T01:47:09.889Z,35.41
2022-10-17T01:49:20.555Z,35.66
2022-10-17T01:51:40.248Z,35.75
2022-10-17T01:54:01.024Z,35.94
2022-10-17T01:56:10.792Z,36.04
2022-10-17T01:58:28.171Z,36.20
2022-10-17T02:00:37.586Z,36.32
2022-10-17T02:02:45.392Z,36.45
2022-10-17T02:04:54.379Z,36.57
2022-10-17T02:07:13.283Z,36.58
2022-10-17T02:09:27.086Z,36.61
2022-10-17T02:11:35.654Z,36.69
2022-10-17T02:14:03.244Z,36.80
2022-10-17T02:16:24.882Z,36.85
2022-10-17T02:19:04.125Z,36.87
2022-10-17T02:21:28.829Z,37.03
2022-10-17T02:23:58.458Z,37.23
2022-10-17T02:26:09.374Z,37.69
2022-10-17T02:28:18.976Z,38.05
2022-10-17T02:30:35.193Z,38.33
2022-10-17T02:32:54.717Z,38.68
2022-10-17T02:35:05.279Z,39.01
2022-10-17T02:37:16.393Z,39.30
2022-10-17T02:39:24.099Z,39.62
2022-10-17T02:41:31.670Z,39.89
2022-10-17T02:43:39.315Z,40.06
2022-10-17T02:45:47.711Z,40.31
2022-10-17T02:48:09.929Z,40.57
2022-10-17T02:50:16.540Z,40.73
2022-10-17T02:52:31.235Z,40.95
2022-10-17T02:54:44.682Z,41.20
2022-10-17T02:57:02.395Z,41.33
2022-10-17T02:59:14.944Z,41.61
2022-10-17T03:01:23.443Z,41.80
2022-10-17T03:03:32.996Z,41.91
2022-10-17T03:05:40.813Z,42.27
2022-10-17T03:07:47.123Z,42.44
2022-10-17T03:09:53.348Z,42.63
2022-10-17T03:11:59.535Z,42.76
2022-10-17T03:14:06.126Z,43.03
2022-10-17T03:16:12.403Z,43.20
2022-10-17T03:18:19.059Z,43.16
2022-10-17T03:20:26.046Z,43.32
2022-10-17T03:22:32.650Z,43.46
2022-10-17T03:24:40.008Z,43.57
2022-10-17T03:28:54.481Z,43.68
2022-10-17T03:31:01.518Z,43.84
2022-10-17T03:33:08.202Z,43.87
2022-10-17T03:35:15.141Z,43.99
2022-10-17T03:37:24.311Z,43.84
2022-10-17T03:39:30.530Z,44.03
2022-10-17T03:41:37.132Z,44.22
2022-10-17T03:43:43.345Z,44.19
2022-10-17T03:45:49.419Z,44.30
2022-10-17T03:47:56.380Z,44.59
2022-10-17T03:50:03.056Z,44.57
2022-10-17T03:52:16.546Z,44.72
2022-10-17T03:54:22.505Z,44.89
2022-10-17T03:56:29.577Z,45.12
2022-10-17T03:58:41.865Z,45.20
2022-10-17T04:00:49.382Z,45.38
2022-10-17T04:02:55.942Z,45.47
2022-10-17T04:05:02.551Z,45.62
2022-10-17T04:07:09.557Z,45.84
2022-10-17T04:09:17.758Z,45.98
2022-10-17T04:11:38.693Z,46.17
2022-10-17T04:13:45.728Z,46.27
2022-10-17T04:16:06.960Z,46.48
2022-10-17T04:18:15.217Z,46.62
2022-10-17T04:20:22.563Z,46.72
2022-10-17T04:22:29.486Z,46.73
2022-10-17T04:24:36.551Z,46.90
2022-10-17T04:26:52.344Z,47.05
2022-10-17T04:29:00.103Z,47.26
2022-10-17T04:31:10.179Z,47.36
2022-10-17T04:33:35.796Z,47.52
2022-10-17T04:35:42.625Z,47.55
2022-10-17T04:37:49.670Z,47.72
2022-10-17T04:39:57.704Z,47.84
2022-10-17T04:42:03.846Z,47.89
2022-10-17T04:44:11.307Z,48.11
2022-10-17T04:46:20.912Z,48.26
2022-10-17T04:48:28.167Z,48.48
2022-10-17T04:50:34.246Z,48.75
2022-10-17T04:53:05.115Z,48.83
2022-10-17T04:55:11.341Z,48.95
2022-10-17T04:57:19.801Z,49.07
2022-10-17T04:59:33.181Z,49.25
2022-10-17T05:01:51.723Z,49.31
2022-10-17T05:03:57.867Z,49.47
2022-10-17T05:06:09.405Z,49.63
2022-10-17T05:08:17.418Z,49.72
2022-10-17T05:10:23.858Z,49.86
2022-10-17T05:12:31.612Z,49.98
2022-10-17T05:14:38.016Z,50.09
2022-10-17T05:16:44.244Z,50.23
2022-10-17T05:18:56.461Z,50.36
2022-10-17T05:21:06.916Z,50.45
2022-10-17T05:23:15.548Z,50.59
2022-10-17T05:25:22.525Z,50.69
2022-10-17T05:27:28.815Z,50.72
2022-10-17T05:29:36.494Z,50.73
2022-10-17T05:31:48.783Z,50.80
2022-10-17T05:33:55.077Z,50.70
2022-10-17T05:36:01.908Z,50.82
2022-10-17T05:38:08.215Z,50.92
2022-10-17T05:40:15.326Z,51.00
2022-10-17T05:42:21.683Z,51.04
2022-10-17T05:44:27.933Z,51.35
2022-10-17T05:46:36.483Z,51.32
2022-10-17T05:48:43.042Z,51.43
2022-10-17T05:50:49.945Z,51.45
2022-10-17T05:52:57.177Z,51.56
2022-10-17T05:55:03.401Z,51.68
2022-10-17T05:57:10.398Z,51.73
2022-10-17T05:59:17.830Z,51.89
2022-10-17T06:01:37.645Z,52.01
2022-10-17T06:03:43.985Z,52.03
2022-10-17T06:05:50.218Z,52.08
2022-10-17T06:08:01.079Z,52.26
2022-10-17T06:10:14.088Z,52.34
2022-10-17T06:12:20.712Z,52.48
2022-10-17T06:14:27.979Z,52.51
2022-10-17T06:16:39.104Z,52.60
2022-10-17T06:18:45.307Z,52.73
2022-10-17T06:20:51.918Z,52.78
2022-10-17T06:22:58.840Z,52.95
2022-10-17T06:25:37.383Z,53.13
2022-10-17T06:27:44.055Z,53.25
2022-10-17T06:29:52.382Z,53.29
2022-10-17T06:31:58.601Z,53.52
2022-10-17T06:34:05.530Z,53.50
2022-10-17T06:36:13.923Z,53.59
2022-10-17T06:38:20.944Z,53.69
2022-10-17T06:40:29.400Z,53.87
2022-10-17T06:42:36.397Z,53.93
2022-10-17T06:44:47.066Z,54.15
2022-10-17T06:47:17.891Z,54.25
2022-10-17T06:49:28.267Z,54.44
2022-10-17T06:51:54.706Z,54.47
2022-10-17T06:54:07.634Z,54.63
2022-10-17T06:56:32.409Z,54.64
2022-10-17T06:58:48.727Z,54.66
2022-10-17T07:01:15.150Z,54.80
2022-10-17T07:03:22.560Z,54.92
2022-10-17T07:05:28.538Z,54.96
2022-10-17T07:07:34.799Z,55.00
2022-10-17T07:09:43.184Z,55.14
2022-10-17T07:11:49.468Z,55.22
2022-10-17T07:13:57.519Z,55.18
2022-10-17T07:16:03.813Z,55.34
2022-10-17T07:18:11.365Z,55.35
2022-10-17T07:20:18.344Z,55.52
2022-10-17T07:22:24.868Z,55.61
2022-10-17T07:24:34.719Z,55.69
2022-10-17T07:26:49.036Z,55.75
2022-10-17T07:28:57.142Z,55.83
2022-10-17T07:31:38.615Z,55.95
2022-10-17T07:35:53.891Z,56.04
2022-10-17T07:38:00.434Z,56.17
2022-10-17T07:40:08.687Z,56.26
2022-10-17T07:42:15.795Z,56.40
2022-10-17T07:44:22.837Z,56.49
2022-10-17T07:46:31.250Z,56.52
2022-10-17T07:48:37.903Z,56.62
2022-10-17T07:50:44.473Z,56.63
2022-10-17T07:52:50.636Z,56.71
2022-10-17T07:54:56.708Z,56.77
2022-10-17T07:57:03.029Z,56.88
2022-10-17T07:59:09.715Z,57.00
2022-10-17T08:01:16.405Z,57.13
2022-10-17T08:03:22.832Z,57.16
2022-10-17T08:05:29.450Z,57.16
2022-10-17T08:07:35.705Z,57.17
2022-10-17T08:09:41.859Z,57.30
2022-10-17T08:11:48.280Z,57.45
2022-10-17T08:13:54.463Z,57.52
2022-10-17T08:16:06.737Z,57.52
2022-10-17T08:18:12.492Z,57.64
2022-10-17T08:20:18.759Z,57.61
2022-10-17T08:22:24.977Z,57.69
2022-10-17T08:24:31.199Z,57.79
2022-10-17T08:26:40.730Z,57.88
2022-10-17T08:28:50.539Z,58.00
2022-10-17T08:31:04.821Z,58.05
2022-10-17T08:33:11.261Z,58.11
2022-10-17T08:35:17.412Z,58.09
2022-10-17T08:37:24.585Z,58.24
2022-10-17T08:39:31.157Z,58.34
2022-10-17T08:41:40.694Z,58.34
2022-10-17T08:44:17.077Z,58.39
2022-10-17T08:46:24.054Z,58.46
2022-10-17T08:48:34.058Z,58.56
2022-10-17T08:50:55.571Z,58.65
2022-10-17T08:53:21.597Z,58.87
2022-10-17T08:55:36.952Z,58.80
2022-10-17T08:57:45.889Z,58.92
2022-10-17T08:59:54.856Z,58.97
2022-10-17T09:02:16.038Z,59.24
2022-10-17T09:04:47.102Z,59.15
2022-10-17T09:07:05.617Z,59.28
2022-10-17T09:09:17.466Z,59.30
2022-10-17T09:11:23.409Z,59.46
2022-10-17T09:13:53.387Z,59.39
2022-10-17T09:16:17.006Z,59.57
2022-10-17T09:18:32.588Z,59.77
2022-10-17T09:20:53.393Z,59.71
2022-10-17T09:23:18.989Z,59.86
2022-10-17T09:25:25.232Z,59.87
2022-10-17T09:27:46.435Z,60.01
2022-10-17T09:30:03.636Z,60.27
2022-10-17T09:32:26.256Z,60.49
2022-10-17T09:34:34.497Z,60.58
2022-10-17T09:36:42.128Z,60.66
2022-10-17T09:38:59.730Z,60.65
2022-10-17T09:41:25.673Z,60.66
2022-10-17T09:43:34.669Z,60.64
2022-10-17T09:45:52.612Z,60.73
2022-10-17T09:48:12.362Z,60.85
2022-10-17T09:50:28.592Z,61.03
2022-10-17T09:52:54.960Z,61.03
2022-10-17T09:55:07.887Z,61.01
2022-10-17T09:57:15.855Z,61.18
2022-10-17T09:59:33.848Z,61.15
2022-10-17T10:01:40.296Z,61.38
2022-10-17T10:03:47.338Z,61.38
2022-10-17T10:06:13.609Z,61.60
2022-10-17T10:08:21.344Z,61.94
2022-10-17T10:10:30.556Z,62.02
2022-10-17T10:12:40.248Z,62.63
2022-10-17T10:14:47.497Z,62.52
2022-10-17T10:16:57.260Z,62.50
2022-10-17T10:19:05.891Z,62.57
2022-10-17T10:21:18.772Z,62.38
2022-10-17T10:23:25.455Z,62.28
2022-10-17T10:25:31.904Z,62.44
2022-10-17T10:27:41.317Z,62.47
2022-10-17T10:29:53.009Z,62.43
2022-10-17T10:32:10.740Z,62.71
2022-10-17T10:34:30.550Z,62.86
2022-10-17T10:37:06.120Z,62.92
2022-10-17T10:39:41.402Z,63.04
2022-10-17T10:41:49.759Z,63.61
2022-10-17T10:43:57.629Z,63.81
2022-10-17T10:46:07.843Z,64.06
2022-10-17T10:48:37.600Z,64.17
2022-10-17T10:51:14.636Z,64.02
2022-10-17T10:53:39.323Z,64.04
2022-10-17T10:56:10.539Z,64.03
2022-10-17T10:58:47.810Z,64.25
2022-10-17T11:00:56.287Z,64.06
2022-10-17T11:03:27.943Z,64.24
2022-10-17T11:05:59.368Z,64.27
2022-10-17T11:08:28.968Z,64.02
2022-10-17T11:10:54.633Z,64.13
2022-10-17T11:13:05.831Z,64.15
2022-10-17T11:15:43.412Z,64.05
2022-10-17T11:17:58.098Z,64.07
2022-10-17T11:20:29.361Z,63.93
2022-10-17T11:22:48.026Z,63.93
2022-10-17T11:25:01.071Z,64.02
2022-10-17T11:27:10.038Z,63.96
2022-10-17T11:29:16.339Z,64.18
2022-10-17T11:31:30.575Z,64.07
2022-10-17T11:34:00.417Z,64.21
2022-10-17T11:36:09.810Z,63.93
2022-10-17T11:38:37.844Z,64.04
2022-10-17T11:40:50.765Z,64.23
2022-10-17T11:43:19.348Z,64.17
2022-10-17T11:45:29.036Z,64.35
2022-10-17T11:47:46.725Z,64.31
2022-10-17T11:51:59.635Z,64.36
2022-10-17T11:52:56.938Z,64.50
2022-10-17T11:55:21.055Z,64.62
2022-10-17T11:57:33.904Z,64.44
2022-10-17T12:00:17.305Z,64.77
2022-10-17T12:02:50.722Z,64.67
2022-10-17T12:05:08.038Z,64.79
2022-10-17T12:07:32.361Z,64.77
2022-10-17T12:09:50.625Z,64.77
2022-10-17T12:12:04.801Z,64.81
2022-10-17T12:14:36.506Z,64.92
2022-10-17T12:16:47.057Z,64.70
2022-10-17T12:19:13.781Z,64.68
2022-10-17T12:21:20.305Z,64.64
2022-10-17T12:23:32.110Z,64.62
2022-10-17T12:25:56.904Z,64.61
2022-10-17T12:28:18.708Z,64.77
2022-10-17T12:30:29.268Z,64.90
2022-10-17T12:33:00.018Z,64.91
2022-10-17T12:35:02.834Z,64.94
2022-10-17T12:37:12.973Z,64.94
2022-10-17T12:39:19.122Z,64.91
2022-10-17T12:41:41.102Z,64.91
2022-10-17T12:43:52.676Z,64.98
2022-10-17T12:46:04.185Z,65.03
2022-10-17T12:48:13.872Z,65.07
2022-10-17T12:51:12.161Z,65.12
2022-10-17T12:53:27.384Z,65.26
2022-10-17T12:55:34.291Z,65.40
2022-10-17T12:57:58.599Z,65.52
2022-10-17T13:00:21.523Z,65.52
2022-10-17T13:02:30.704Z,65.60
2022-10-17T13:04:38.643Z,65.61
2022-10-17T13:06:55.252Z,65.62
2022-10-17T13:09:09.413Z,65.56
2022-10-17T13:11:16.659Z,65.62
2022-10-17T13:13:43.447Z,65.65
2022-10-17T13:15:52.777Z,65.59
2022-10-17T13:18:01.677Z,65.66
2022-10-17T13:20:27.534Z,65.59
2022-10-17T13:22:36.891Z,65.69
2022-10-17T13:24:43.402Z,65.64
2022-10-17T13:26:49.769Z,65.76
2022-10-17T13:29:07.757Z,65.64
2022-10-17T13:31:34.101Z,65.55
2022-10-17T13:33:43.345Z,65.77
2022-10-17T13:36:06.174Z,65.73
2022-10-17T13:38:14.749Z,65.73
2022-10-17T13:40:44.584Z,65.65
2022-10-17T13:42:52.119Z,65.86
2022-10-17T13:45:00.520Z,65.84
2022-10-17T13:47:07.095Z,65.96
2022-10-17T13:49:35.889Z,65.99
2022-10-17T13:51:47.265Z,65.99
2022-10-17T13:53:54.008Z,66.10
2022-10-17T13:56:26.917Z,66.12
2022-10-17T13:58:45.338Z,66.04
2022-10-17T14:00:53.751Z,66.14
2022-10-17T14:02:59.868Z,66.13
2022-10-17T14:05:17.334Z,66.29
2022-10-17T14:08:10.070Z,66.32
2022-10-17T14:10:21.774Z,66.23
2022-10-17T14:12:27.985Z,66.12
2022-10-17T14:14:58.070Z,66.25
2022-10-17T14:17:01.846Z,66.25
2022-10-17T14:19:25.867Z,66.26
2022-10-17T14:21:43.411Z,66.21
2022-10-17T14:23:51.885Z,66.23
2022-10-17T14:26:15.150Z,66.22
2022-10-17T14:28:24.406Z,66.21
2022-10-17T14:30:56.696Z,66.23
2022-10-17T14:33:09.180Z,66.24
2022-10-17T14:35:41.101Z,66.18
2022-10-17T14:37:52.357Z,66.27
2022-10-17T14:40:02.704Z,66.36
2022-10-17T14:42:19.963Z,66.45
2022-10-17T14:44:30.422Z,66.49
2022-10-17T14:46:38.797Z,66.49
2022-10-17T14:48:45.508Z,66.60
2022-10-17T14:51:19.826Z,66.63
2022-10-17T14:53:29.646Z,66.73
2022-10-17T14:55:37.978Z,66.82
2022-10-17T14:57:47.811Z,66.90
2022-10-17T14:59:56.504Z,67.04
2022-10-17T15:02:03.325Z,66.98
2022-10-17T15:04:11.910Z,67.08
2022-10-17T15:06:55.533Z,67.03
2022-10-17T15:09:02.008Z,67.18
2022-10-17T15:11:08.189Z,67.15
2022-10-17T15:13:33.550Z,67.11
2022-10-17T15:15:42.900Z,67.21
2022-10-17T15:17:49.394Z,67.30
2022-10-17T15:19:56.601Z,67.23
2022-10-17T15:22:03.487Z,67.27
2022-10-17T15:24:09.682Z,67.37
2022-10-17T15:26:17.314Z,67.48
2022-10-17T15:28:23.364Z,67.42
2022-10-17T15:30:33.813Z,67.52
2022-10-17T15:32:39.923Z,67.25
2022-10-17T15:34:46.845Z,67.39
2022-10-17T15:36:55.250Z,67.08
2022-10-17T15:39:03.111Z,66.74
2022-10-17T15:41:12.302Z,66.49
2022-10-17T15:43:19.850Z,66.30
2022-10-17T15:45:26.362Z,66.28
2022-10-17T15:47:37.197Z,65.99
2022-10-17T15:49:43.257Z,65.79
2022-10-17T15:51:55.164Z,65.55
2022-10-17T15:54:02.861Z,65.18
2022-10-17T15:56:13.014Z,64.81
2022-10-17T15:58:20.643Z,64.40
2022-10-17T16:00:27.106Z,64.19
2022-10-17T16:02:34.488Z,63.74
2022-10-17T16:04:40.903Z,63.47
2022-10-17T16:06:47.217Z,63.09
2022-10-17T16:08:53.864Z,62.81
2022-10-17T16:11:00.087Z,62.47
2022-10-17T16:13:06.445Z,61.84
2022-10-17T16:15:39.116Z,61.54
2022-10-17T16:17:45.946Z,61.70
2022-10-17T16:19:51.914Z,61.65
2022-10-17T16:22:04.424Z,61.53
2022-10-17T16:24:14.706Z,61.24
2022-10-17T16:26:21.310Z,61.02
2022-10-17T16:28:27.591Z,60.66
2022-10-17T16:30:34.706Z,60.47
2022-10-17T16:32:41.269Z,60.15
2022-10-17T16:34:47.563Z,59.82
2022-10-17T16:36:54.347Z,59.83
2022-10-17T16:39:00.971Z,59.85
2022-10-17T16:41:15.502Z,59.38
2022-10-17T16:43:21.720Z,59.09
2022-10-17T16:45:27.943Z,58.78
2022-10-17T16:47:34.460Z,58.72
2022-10-17T16:49:44.374Z,58.19
2022-10-17T16:51:51.871Z,58.03
2022-10-17T16:54:01.236Z,58.06
2022-10-17T16:56:09.503Z,57.85
2022-10-17T16:58:15.567Z,57.83
2022-10-17T17:00:21.789Z,58.05
2022-10-17T17:02:27.855Z,57.96
2022-10-17T17:04:34.062Z,57.84
2022-10-17T17:06:40.227Z,57.59
2022-10-17T17:08:46.909Z,57.17
2022-10-17T17:10:55.300Z,56.80
2022-10-17T17:13:02.780Z,56.48
2022-10-17T17:15:09.194Z,56.15
2022-10-17T17:17:24.538Z,55.56
2022-10-17T17:19:41.673Z,55.19
2022-10-17T17:21:54.288Z,54.95
2022-10-17T17:24:01.942Z,54.63
2022-10-17T17:26:18.513Z,54.47
2022-10-17T17:28:24.680Z,53.68
2022-10-17T17:30:31.058Z,53.38
2022-10-17T17:32:37.331Z,53.05
2022-10-17T17:34:43.701Z,52.53
2022-10-17T17:36:51.368Z,52.18
2022-10-17T17:39:01.416Z,51.96
2022-10-17T17:41:08.291Z,51.92
2022-10-17T17:43:15.276Z,51.67
2022-10-17T17:45:21.643Z,51.21
2022-10-17T17:47:31.047Z,50.94
2022-10-17T17:49:37.919Z,50.53
2022-10-17T17:51:47.677Z,50.60
2022-10-17T17:53:54.775Z,50.42
2022-10-17T17:56:12.733Z,50.09
2022-10-17T17:58:19.100Z,49.74
2022-10-17T18:00:25.631Z,49.77
2022-10-17T18:02:33.016Z,49.42
2022-10-17T18:04:39.623Z,48.89
2022-10-17T18:06:46.056Z,49.13
2022-10-17T18:08:55.894Z,49.29
2022-10-17T18:11:02.995Z,48.95
2022-10-17T18:13:09.494Z,49.24
2022-10-17T18:15:17.420Z,49.10
2022-10-17T18:17:24.063Z,48.56
2022-10-17T18:19:30.714Z,48.86
2022-10-17T18:21:38.483Z,48.73
2022-10-17T18:23:47.449Z,48.41
2022-10-17T18:25:58.856Z,48.34
2022-10-17T18:28:05.758Z,48.37
2022-10-17T18:30:12.550Z,47.98
2022-10-17T18:32:18.742Z,47.63
2022-10-17T18:34:25.094Z,47.29
2022-10-17T18:36:32.619Z,46.96
2022-10-17T18:38:39.523Z,46.70
2022-10-17T18:40:48.624Z,46.43
2022-10-17T18:42:57.342Z,46.12
2022-10-17T18:45:06.876Z,45.71
2022-10-17T18:47:12.698Z,45.43
2022-10-17T18:49:20.734Z,45.22
2022-10-17T18:51:27.702Z,44.92
2022-10-17T18:53:34.879Z,44.94
2022-10-17T18:55:41.533Z,44.80
2022-10-17T18:57:51.969Z,44.84
2022-10-17T18:59:58.003Z,44.72
2022-10-17T19:02:04.297Z,44.45
2022-10-17T19:04:11.409Z,44.42
2022-10-17T19:06:20.884Z,44.28
2022-10-17T19:08:27.744Z,44.07
2022-10-17T19:10:35.287Z,44.01
2022-10-17T19:12:41.842Z,43.95
2022-10-17T19:14:51.815Z,44.08
2022-10-17T19:16:58.930Z,44.25
2022-10-17T19:19:06.946Z,43.93
2022-10-17T19:21:16.007Z,43.53
2022-10-17T19:23:24.104Z,43.32
2022-10-17T19:25:31.525Z,43.36
2022-10-17T19:27:37.999Z,43.52
2022-10-17T19:29:45.184Z,43.92
2022-10-17T19:31:51.451Z,43.99
2022-10-17T19:33:58.199Z,43.77
2022-10-17T19:36:09.775Z,43.76
2022-10-17T19:38:15.871Z,43.96
2022-10-17T19:40:22.004Z,43.58
2022-10-17T19:42:28.812Z,43.21
2022-10-17T19:44:35.276Z,43.28
2022-10-17T19:46:42.481Z,43.05
2022-10-17T19:48:49.644Z,42.93
2022-10-17T19:50:56.262Z,42.89
2022-10-17T19:53:02.316Z,42.94
2022-10-17T19:55:09.276Z,42.92
2022-10-17T19:57:15.518Z,42.57
2022-10-17T19:59:22.708Z,42.56
2022-10-17T20:01:31.602Z,42.07
2022-10-17T20:03:37.832Z,41.96
2022-10-17T20:05:44.235Z,42.07
2022-10-17T20:07:50.571Z,41.83
2022-10-17T20:09:57.123Z,41.48
2022-10-17T20:12:03.525Z,41.41
2022-10-17T20:14:09.986Z,41.45
2022-10-17T20:16:19.565Z,41.32
2022-10-17T20:18:28.378Z,41.37
2022-10-17T20:20:38.859Z,41.41
2022-10-17T20:22:45.533Z,41.29
2022-10-17T20:24:51.900Z,41.75
2022-10-17T20:26:58.145Z,42.30
2022-10-17T20:29:05.859Z,42.59
2022-10-17T20:31:13.293Z,42.48
2022-10-17T20:33:19.277Z,42.04
2022-10-17T20:35:25.854Z,41.79
2022-10-17T20:37:39.938Z,41.91
2022-10-17T20:39:55.818Z,42.01
2022-10-17T20:42:11.980Z,41.94
2022-10-17T20:44:18.149Z,41.73
2022-10-17T20:48:53.725Z,41.11
2022-10-17T20:51:00.202Z,40.81
2022-10-17T20:53:34.832Z,40.57
2022-10-17T20:55:34.333Z,40.33
2022-10-17T20:57:40.681Z,39.72
2022-10-17T20:59:47.794Z,40.06
2022-10-17T21:01:55.947Z,40.05
2022-10-17T21:04:16.218Z,40.09
2022-10-17T21:06:28.769Z,40.04
2022-10-17T21:08:34.813Z,39.93
2022-10-17T21:10:41.062Z,39.57
2022-10-17T21:12:53.825Z,39.70
2022-10-17T21:15:01.649Z,39.99
2022-10-17T21:17:08.937Z,39.72
2022-10-17T21:19:17.562Z,39.77
2022-10-17T21:21:27.762Z,39.38
2022-10-17T21:23:33.894Z,39.76
2022-10-17T21:25:40.839Z,39.83
2022-10-17T21:27:47.467Z,39.70
2022-10-17T21:29:54.073Z,39.72
2022-10-17T21:32:00.889Z,39.72
2022-10-17T21:34:16.271Z,39.55
2022-10-17T21:36:23.660Z,39.67
2022-10-17T21:38:29.840Z,39.93
2022-10-17T21:40:36.342Z,39.67
2022-10-17T21:42:43.744Z,39.90
2022-10-17T21:44:51.034Z,40.02
2022-10-17T21:46:57.498Z,40.16
2022-10-17T21:49:04.089Z,40.34
2022-10-17T21:51:14.967Z,40.41
2022-10-17T21:53:22.763Z,40.47
2022-10-17T21:55:29.294Z,40.36
2022-10-17T21:57:35.797Z,40.34
2022-10-17T21:59:42.714Z,40.35
2022-10-17T22:01:50.032Z,40.49
2022-10-17T22:04:00.849Z,40.16
2022-10-17T22:06:37.723Z,40.43
2022-10-17T22:08:37.507Z,40.21
2022-10-17T22:10:45.780Z,40.37
2022-10-17T22:12:52.381Z,40.32
2022-10-17T22:14:58.949Z,40.48
2022-10-17T22:17:05.465Z,40.38
2022-10-17T22:19:14.544Z,40.45
2022-10-17T22:21:23.279Z,40.24
2022-10-17T22:23:29.994Z,40.20
2022-10-17T22:25:36.191Z,40.37
2022-10-17T22:27:42.855Z,40.31
2022-10-17T22:29:49.288Z,40.33
2022-10-17T22:31:55.689Z,40.52
2022-10-17T22:34:02.949Z,40.53
2022-10-17T22:36:11.571Z,40.33
2022-10-17T22:38:18.732Z,40.52
2022-10-17T22:40:24.853Z,40.45
2022-10-17T22:42:34.148Z,40.65
2022-10-17T22:44:40.718Z,40.70
2022-10-17T22:46:47.207Z,40.49
2022-10-17T22:48:53.720Z,40.52
2022-10-17T22:51:00.913Z,40.45
2022-10-17T22:53:08.076Z,40.40
2022-10-17T22:55:14.796Z,40.45
2022-10-17T22:57:21.007Z,40.51
2022-10-17T22:59:27.427Z,40.52
2022-10-17T23:01:33.568Z,40.60
2022-10-17T23:03:39.759Z,40.47
2022-10-17T23:05:46.500Z,40.46
2022-10-17T23:07:52.583Z,40.61
2022-10-17T23:09:58.702Z,40.51
2022-10-17T23:12:04.951Z,40.55
2022-10-17T23:14:12.111Z,40.50
2022-10-17T23:16:18.675Z,40.57
2022-10-17T23:18:26.539Z,40.84
2022-10-17T23:20:33.555Z,40.85
2022-10-17T23:22:39.909Z,41.01
2022-10-17T23:24:46.997Z,40.84
2022-10-17T23:26:53.810Z,40.85
2022-10-17T23:28:59.833Z,41.02
2022-10-17T23:31:32.227Z,40.96
2022-10-17T23:33:38.561Z,40.88
2022-10-17T23:35:44.951Z,41.03
2022-10-17T23:37:51.140Z,41.16
2022-10-17T23:39:57.865Z,41.31
2022-10-17T23:42:04.077Z,41.42
2022-10-17T23:44:12.699Z,41.58
2022-10-17T23:46:20.542Z,41.52
2022-10-17T23:48:27.295Z,41.66
2022-10-17T23:50:33.724Z,41.75
2022-10-17T23:52:40.214Z,41.72
2022-10-17T23:54:46.813Z,41.84
2022-10-17T23:56:53.700Z,41.78
2022-10-17T23:59:00.076Z,41.86
